Time;durP1;ratioP1;P1;durP2;ratioP2;P2;SDS_P1;SDS_P2;PMS_P1;PMS_P2;Temp;Humidity;BMP_temperature;BMP_pressure;BME280_temperature;BME280_humidity;BME280_pressure;Samples;Min_cycle;Max_cycle;Signal;HPM_P1;HPM_P2
2022/07/23 00:00:54;;;;;;;12.48;2.90;;;14.70;89.90;;;;;;5031655;28;20192;-71
2022/07/23 00:03:20;;;;;;;4.72;2.55;;;14.60;90.00;;;;;;5027795;28;20100;-71
2022/07/23 00:05:45;;;;;;;10.20;2.92;;;14.60;90.30;;;;;;5024590;28;20120;-71
2022/07/23 00:08:11;;;;;;;6.30;2.80;;;14.60;90.40;;;;;;5027108;28;20398;-71
2022/07/23 00:10:37;;;;;;;7.25;2.42;;;14.70;90.80;;;;;;5029922;28;20127;-71
2022/07/23 00:13:02;;;;;;;7.35;2.30;;;14.70;90.40;;;;;;5029993;28;20037;-71
2022/07/23 00:15:28;;;;;;;6.57;2.65;;;14.70;90.40;;;;;;5028063;28;20367;-71
2022/07/23 00:17:54;;;;;;;8.20;2.45;;;14.60;90.50;;;;;;5027563;28;20037;-71
2022/07/23 00:20:19;;;;;;;7.45;2.67;;;14.60;90.90;;;;;;5030001;28;20473;-71
2022/07/23 00:22:55;;;;;;;5.00;2.45;;;14.60;90.80;;;;;;5027251;28;20025;-71
2022/07/23 00:25:21;;;;;;;7.03;2.90;;;14.60;90.70;;;;;;5025162;28;20100;-71
2022/07/23 00:27:47;;;;;;;5.43;2.40;;;14.50;91.00;;;;;;5029670;28;20129;-71
2022/07/23 00:30:13;;;;;;;9.13;2.63;;;14.50;90.90;;;;;;5029480;28;20449;-71
2022/07/23 00:32:49;;;;;;;10.68;2.72;;;14.50;90.80;;;;;;5028158;28;20029;-71
2022/07/23 00:35:16;;;;;;;4.93;2.47;;;14.40;91.10;;;;;;5028158;28;20385;-71
2022/07/23 00:37:41;;;;;;;5.30;2.72;;;14.40;91.10;;;;;;5019350;28;20053;-71
2022/07/23 00:40:08;;;;;;;15.90;5.45;;;14.40;91.00;;;;;;5025034;28;20892;-71
2022/07/23 00:42:33;;;;;;;8.80;3.28;;;14.40;91.10;;;;;;5027874;28;20468;-71
2022/07/23 00:44:59;;;;;;;9.07;2.97;;;14.40;90.90;;;;;;5028826;28;20041;-71
2022/07/23 00:47:24;;;;;;;9.15;4.13;;;14.40;90.90;;;;;;5024081;28;20097;-71
2022/07/23 00:49:50;;;;;;;15.85;5.45;;;14.50;90.90;;;;;;5027776;28;20022;-71
2022/07/23 00:52:15;;;;;;;8.18;4.50;;;14.50;90.80;;;;;;5028265;28;20074;-71
2022/07/23 00:54:41;;;;;;;5.97;3.05;;;14.40;90.90;;;;;;5024112;28;20048;-71
2022/07/23 00:57:08;;;;;;;10.20;4.80;;;14.40;90.70;;;;;;5027007;28;20540;-71
2022/07/23 00:59:34;;;;;;;6.50;3.00;;;14.30;90.60;;;;;;5024167;28;20033;-71
2022/07/23 01:01:59;;;;;;;7.90;3.15;;;14.10;90.50;;;;;;5027840;28;20048;-71
2022/07/23 01:04:25;;;;;;;7.38;2.83;;;14.00;91.00;;;;;;5028099;28;20444;-71
2022/07/23 01:06:51;;;;;;;6.03;3.10;;;13.80;91.40;;;;;;5025146;28;20079;-71
2022/07/23 01:09:16;;;;;;;7.18;3.17;;;13.80;92.10;;;;;;5020085;28;20084;-71
2022/07/23 01:11:42;;;;;;;7.18;3.10;;;13.70;92.50;;;;;;5025775;28;20413;-71
2022/07/23 01:14:10;;;;;;;6.57;2.83;;;13.50;92.70;;;;;;5026454;28;20022;-71
2022/07/23 01:16:36;;;;;;;8.13;3.05;;;13.40;92.50;;;;;;5025747;28;20492;-71
2022/07/23 01:19:04;;;;;;;5.90;2.67;;;13.30;92.60;;;;;;5026158;28;20049;-71
2022/07/23 01:21:30;;;;;;;7.65;3.10;;;13.30;92.90;;;;;;5028003;28;20021;-71
2022/07/23 01:23:56;;;;;;;5.53;3.03;;;13.20;93.00;;;;;;5019645;28;20100;-71
2022/07/23 01:26:21;;;;;;;11.05;3.55;;;13.20;93.40;;;;;;5024026;28;20445;-71
2022/07/23 01:28:47;;;;;;;6.53;3.63;;;13.20;93.50;;;;;;5020725;28;20064;-71
2022/07/23 01:31:12;;;;;;;6.60;3.22;;;13.20;93.60;;;;;;5025677;28;20048;-71
2022/07/23 01:33:37;;;;;;;6.28;3.00;;;13.30;93.70;;;;;;5025137;28;20061;-71
2022/07/23 01:36:03;;;;;;;6.85;3.83;;;13.20;93.60;;;;;;5027670;28;20037;-71
2022/07/23 01:38:29;;;;;;;8.90;3.63;;;13.20;93.70;;;;;;5025505;28;20038;-71
2022/07/23 01:40:54;;;;;;;7.22;3.67;;;13.20;93.80;;;;;;5029511;28;20029;-70
2022/07/23 01:43:20;;;;;;;6.57;3.70;;;13.20;93.90;;;;;;5026373;28;20064;-71
2022/07/23 01:45:45;;;;;;;9.55;3.97;;;13.30;93.90;;;;;;5024114;28;20926;-71
2022/07/23 01:48:11;;;;;;;12.77;4.35;;;13.30;94.00;;;;;;5018981;28;20038;-71
2022/07/23 01:50:36;;;;;;;7.35;4.13;;;13.30;93.80;;;;;;5027711;28;20029;-71
2022/07/23 01:53:02;;;;;;;5.18;3.10;;;13.30;93.60;;;;;;5025812;28;20496;-71
2022/07/23 01:55:27;;;;;;;8.80;3.65;;;13.30;93.40;;;;;;5025342;28;20087;-71
2022/07/23 01:57:53;;;;;;;5.75;3.25;;;13.20;93.20;;;;;;5019341;28;20034;-71
2022/07/23 02:00:18;;;;;;;14.18;4.57;;;13.10;93.30;;;;;;5018771;28;20037;-71
2022/07/23 02:02:44;;;;;;;8.82;3.60;;;13.00;93.30;;;;;;5023496;28;20424;-71
2022/07/23 02:05:09;;;;;;;9.68;4.00;;;13.00;93.70;;;;;;5030239;28;20444;-71
2022/07/23 02:07:35;;;;;;;8.35;4.30;;;13.00;94.00;;;;;;5025521;28;20025;-71
2022/07/23 02:10:00;;;;;;;12.65;4.47;;;12.90;94.20;;;;;;5026462;28;20083;-71
2022/07/23 02:12:26;;;;;;;8.07;4.55;;;12.90;94.40;;;;;;5022537;28;20504;-71
2022/07/23 02:14:51;;;;;;;16.05;4.68;;;12.80;94.50;;;;;;5029995;28;20097;-71
2022/07/23 02:17:17;;;;;;;10.45;4.78;;;12.80;94.70;;;;;;5024935;28;20022;-71
2022/07/23 02:19:42;;;;;;;10.50;4.53;;;12.70;94.90;;;;;;5029284;28;20052;-71
2022/07/23 02:22:08;;;;;;;9.20;5.00;;;12.70;95.00;;;;;;5021566;28;20084;-71
2022/07/23 02:24:34;;;;;;;8.43;4.65;;;12.70;95.00;;;;;;5026051;28;20037;-71
2022/07/23 02:26:59;;;;;;;14.80;5.18;;;12.60;95.20;;;;;;5025273;28;20183;-71
2022/07/23 02:29:25;;;;;;;14.32;5.28;;;12.60;95.20;;;;;;5032373;28;20025;-71
2022/07/23 02:31:50;;;;;;;12.88;5.32;;;12.60;95.50;;;;;;5026131;28;20633;-71
2022/07/23 02:34:16;;;;;;;8.93;5.60;;;12.60;95.50;;;;;;5025547;28;20032;-71
2022/07/23 02:36:41;;;;;;;16.60;6.10;;;12.60;95.60;;;;;;5028554;28;20071;-71
2022/07/23 02:39:07;;;;;;;7.97;5.72;;;12.60;95.80;;;;;;5032390;28;20037;-71
2022/07/23 02:41:33;;;;;;;14.15;6.18;;;12.60;95.80;;;;;;5030358;28;20055;-71
2022/07/23 02:43:58;;;;;;;10.38;6.15;;;12.60;95.80;;;;;;5029589;28;20148;-71
2022/07/23 02:46:23;;;;;;;8.93;5.85;;;12.60;96.00;;;;;;5027326;28;20034;-71
2022/07/23 02:48:49;;;;;;;13.88;6.35;;;12.60;96.00;;;;;;5020245;28;20037;-71
2022/07/23 02:51:14;;;;;;;11.13;6.50;;;12.60;96.10;;;;;;5030232;28;20025;-71
2022/07/23 02:53:40;;;;;;;11.75;6.43;;;12.60;96.00;;;;;;5029571;28;20124;-71
2022/07/23 02:56:05;;;;;;;15.55;7.00;;;12.60;96.10;;;;;;5031911;28;20092;-71
2022/07/23 02:58:31;;;;;;;14.15;6.03;;;12.50;96.00;;;;;;5027318;28;20065;-71
2022/07/23 03:00:56;;;;;;;11.63;6.20;;;12.50;96.10;;;;;;5029971;28;20061;-71
2022/07/23 03:03:22;;;;;;;11.32;6.68;;;12.50;96.10;;;;;;5027346;28;20377;-71
2022/07/23 03:05:48;;;;;;;11.88;6.30;;;12.50;96.20;;;;;;5031959;28;20497;-71
2022/07/23 03:08:13;;;;;;;12.23;6.95;;;12.50;96.30;;;;;;5026830;28;20025;-71
2022/07/23 03:10:39;;;;;;;11.65;6.43;;;12.50;96.30;;;;;;5030817;28;20045;-71
2022/07/23 03:13:04;;;;;;;11.07;6.70;;;12.50;96.30;;;;;;5025239;28;20025;-71
2022/07/23 03:15:30;;;;;;;13.65;6.72;;;12.50;96.40;;;;;;5030762;28;20381;-71
2022/07/23 03:17:55;;;;;;;10.43;6.80;;;12.50;96.30;;;;;;5027357;28;20040;-71
2022/07/23 03:20:20;;;;;;;12.38;6.95;;;12.40;96.30;;;;;;5030827;28;20029;-71
2022/07/23 03:22:46;;;;;;;10.18;6.45;;;12.50;96.30;;;;;;5024628;28;20617;-71
2022/07/23 03:25:11;;;;;;;11.68;6.72;;;12.50;96.40;;;;;;5032424;28;20028;-71
2022/07/23 03:27:37;;;;;;;13.80;7.35;;;12.50;96.40;;;;;;5024807;28;20034;-71
2022/07/23 03:30:03;;;;;;;12.55;6.63;;;12.50;96.50;;;;;;5029560;28;20108;-71
2022/07/23 03:32:29;;;;;;;11.52;6.97;;;12.60;96.40;;;;;;5028120;28;20021;-71
2022/07/23 03:34:54;;;;;;;13.55;7.13;;;12.60;96.30;;;;;;5029733;28;20080;-71
2022/07/23 03:37:20;;;;;;;12.98;7.28;;;12.60;96.20;;;;;;5029014;28;20056;-71
2022/07/23 03:39:45;;;;;;;13.88;7.05;;;12.70;96.10;;;;;;5029083;28;20036;-71
2022/07/23 03:42:11;;;;;;;13.70;6.68;;;12.80;96.20;;;;;;5025804;28;20029;-71
2022/07/23 03:44:37;;;;;;;11.80;6.50;;;12.80;96.00;;;;;;5030605;28;20034;-71
2022/07/23 03:47:06;;;;;;;11.95;6.70;;;12.80;96.00;;;;;;5026677;28;20142;-71
2022/07/23 03:49:32;;;;;;;14.07;6.75;;;12.80;96.00;;;;;;5027384;28;20035;-71
2022/07/23 03:51:58;;;;;;;12.02;6.38;;;12.90;96.00;;;;;;5032294;28;20017;-71
2022/07/23 03:54:23;;;;;;;11.48;5.70;;;12.90;95.80;;;;;;5024343;28;20029;-71
2022/07/23 03:56:49;;;;;;;10.10;5.82;;;12.90;95.80;;;;;;5031099;28;20033;-71
2022/07/23 03:59:14;;;;;;;8.50;6.10;;;12.90;95.70;;;;;;5028806;28;20101;-71
2022/07/23 04:01:40;;;;;;;11.25;5.57;;;12.90;95.70;;;;;;5024702;28;20025;-71
2022/07/23 04:04:06;;;;;;;13.50;5.63;;;13.00;95.60;;;;;;5029509;28;20472;-71
2022/07/23 04:06:32;;;;;;;10.23;5.75;;;13.00;95.60;;;;;;5018387;28;20350;-71
2022/07/23 04:08:57;;;;;;;10.57;6.20;;;13.00;95.70;;;;;;5026324;28;20084;-71
2022/07/23 04:11:23;;;;;;;10.30;5.90;;;13.10;95.50;;;;;;5029469;28;20556;-71
2022/07/23 04:13:48;;;;;;;11.00;5.88;;;13.10;95.50;;;;;;5027133;28;20598;-71
2022/07/23 04:16:14;;;;;;;8.30;5.40;;;13.10;95.30;;;;;;5030652;28;20063;-71
2022/07/23 04:18:40;;;;;;;12.05;5.75;;;13.10;95.40;;;;;;5030843;28;20446;-70
2022/07/23 04:21:06;;;;;;;7.82;5.80;;;13.10;95.20;;;;;;5028604;28;20045;-71
2022/07/23 04:23:31;;;;;;;9.70;5.22;;;13.00;95.30;;;;;;5026456;28;20037;-70
2022/07/23 04:25:57;;;;;;;11.70;5.88;;;13.00;95.40;;;;;;5030891;28;20124;-71
2022/07/23 04:28:22;;;;;;;8.07;5.47;;;13.00;95.50;;;;;;5025339;28;20021;-70
2022/07/23 04:30:48;;;;;;;8.80;5.82;;;13.00;95.50;;;;;;5031148;28;20064;-70
2022/07/23 04:33:13;;;;;;;9.50;6.18;;;13.10;95.80;;;;;;5027908;28;20029;-70
2022/07/23 04:35:39;;;;;;;9.25;5.45;;;13.10;95.80;;;;;;5028974;28;20036;-70
2022/07/23 04:38:04;;;;;;;10.30;6.03;;;13.10;95.90;;;;;;5027477;28;20053;-70
2022/07/23 04:40:30;;;;;;;10.65;5.57;;;13.10;95.80;;;;;;5028244;28;20373;-70
2022/07/23 04:42:56;;;;;;;13.02;6.13;;;13.20;95.70;;;;;;5025454;28;20072;-70
2022/07/23 04:45:23;;;;;;;10.18;5.65;;;13.20;95.60;;;;;;5025095;28;20037;-70
2022/07/23 04:47:48;;;;;;;9.63;5.85;;;13.20;95.70;;;;;;5027593;28;20053;-70
2022/07/23 04:50:18;;;;;;;11.85;6.45;;;13.20;95.70;;;;;;5029023;28;20029;-70
2022/07/23 04:52:44;;;;;;;8.25;5.80;;;13.20;95.60;;;;;;5030604;28;20032;-70
2022/07/23 04:55:09;;;;;;;9.93;5.72;;;13.10;95.60;;;;;;5024535;28;20033;-70
2022/07/23 04:57:35;;;;;;;10.73;5.97;;;13.10;95.60;;;;;;5028283;28;20029;-70
2022/07/23 05:00:01;;;;;;;9.02;5.35;;;13.20;95.50;;;;;;5020554;28;20036;-70
2022/07/23 05:02:26;;;;;;;15.70;6.03;;;13.30;95.70;;;;;;5026940;28;20029;-70
2022/07/23 05:04:52;;;;;;;13.05;5.90;;;13.30;95.70;;;;;;5027896;28;20084;-70
2022/07/23 05:07:17;;;;;;;10.95;6.28;;;13.30;95.70;;;;;;5029753;28;20041;-70
2022/07/23 05:09:43;;;;;;;7.35;5.28;;;13.30;95.50;;;;;;5024239;28;20739;-70
2022/07/23 05:12:08;;;;;;;9.63;6.20;;;13.40;95.60;;;;;;5027159;28;20030;-71
2022/07/23 05:14:33;;;;;;;10.32;6.20;;;13.30;95.50;;;;;;5027909;28;20049;-71
2022/07/23 05:16:59;;;;;;;11.90;5.80;;;13.40;95.50;;;;;;5017954;28;21033;-71
2022/07/23 05:19:24;;;;;;;11.07;6.18;;;13.40;95.40;;;;;;5023637;28;20030;-70
2022/07/23 05:21:50;;;;;;;11.05;5.93;;;13.50;95.40;;;;;;5023655;28;20522;-71
2022/07/23 05:24:15;;;;;;;12.63;6.40;;;13.40;95.30;;;;;;5027249;28;20503;-71
2022/07/23 05:26:41;;;;;;;11.10;6.15;;;13.40;95.20;;;;;;5021545;28;20033;-69
2022/07/23 05:29:06;;;;;;;8.75;6.22;;;13.30;95.30;;;;;;5026467;28;20088;-68
2022/07/23 05:31:32;;;;;;;8.45;5.80;;;13.30;95.30;;;;;;5026283;28;20067;-68
2022/07/23 05:33:57;;;;;;;9.88;5.60;;;13.30;95.30;;;;;;5027338;28;20412;-67
2022/07/23 05:36:23;;;;;;;9.05;6.18;;;13.30;95.40;;;;;;5027439;28;20064;-67
2022/07/23 05:38:48;;;;;;;8.80;6.22;;;13.40;95.30;;;;;;5024721;28;20037;-67
2022/07/23 05:41:14;;;;;;;10.80;6.28;;;13.50;95.40;;;;;;5024162;28;20037;-67
2022/07/23 05:43:39;;;;;;;9.00;5.85;;;13.50;95.30;;;;;;5024693;28;20026;-67
2022/07/23 05:46:05;;;;;;;9.65;6.13;;;13.50;95.40;;;;;;5026452;28;20040;-67
2022/07/23 05:48:31;;;;;;;12.85;6.22;;;13.60;95.40;;;;;;5025276;28;20045;-67
2022/07/23 05:50:57;;;;;;;7.63;5.97;;;13.60;95.20;;;;;;5027623;28;20428;-67
2022/07/23 05:53:22;;;;;;;11.23;5.85;;;13.70;95.00;;;;;;5025481;28;20025;-67
2022/07/23 05:55:48;;;;;;;13.68;6.28;;;13.80;95.20;;;;;;5026387;28;20116;-67
2022/07/23 05:58:13;;;;;;;10.48;5.93;;;14.00;95.20;;;;;;5025407;28;20197;-67
2022/07/23 06:00:39;;;;;;;11.80;6.03;;;14.10;94.80;;;;;;5025109;28;20053;-67
2022/07/23 06:03:05;;;;;;;10.80;5.80;;;14.20;94.50;;;;;;5017297;28;20068;-67
2022/07/23 06:05:31;;;;;;;6.75;5.40;;;14.30;94.10;;;;;;5028271;28;20037;-67
2022/07/23 06:07:56;;;;;;;11.90;5.07;;;14.50;93.80;;;;;;5029749;28;20036;-67
2022/07/23 06:10:22;;;;;;;8.02;4.80;;;14.60;93.20;;;;;;5026201;28;20064;-67
2022/07/23 06:12:47;;;;;;;8.73;4.93;;;14.60;93.00;;;;;;5027804;28;20064;-67
2022/07/23 06:15:13;;;;;;;9.90;5.15;;;14.70;92.70;;;;;;5028037;28;20018;-67
2022/07/23 06:17:39;;;;;;;11.73;4.55;;;14.90;92.50;;;;;;5027665;28;20096;-67
2022/07/23 06:20:07;;;;;;;8.15;4.82;;;15.00;92.30;;;;;;5027921;28;20040;-67
2022/07/23 06:22:32;;;;;;;11.77;4.57;;;15.20;92.10;;;;;;5028852;28;20036;-67
2022/07/23 06:24:58;;;;;;;9.95;4.68;;;15.30;91.60;;;;;;5020724;28;20030;-67
2022/07/23 06:27:23;;;;;;;8.52;4.40;;;15.30;90.80;;;;;;5020605;28;20128;-67
2022/07/23 06:29:48;;;;;;;7.18;4.18;;;15.50;90.80;;;;;;5020354;28;20026;-67
2022/07/23 06:32:14;;;;;;;9.75;4.30;;;15.40;90.00;;;;;;5026160;28;20022;-67
2022/07/23 06:34:39;;;;;;;9.70;4.30;;;15.50;90.00;;;;;;5016704;28;20021;-67
2022/07/23 06:37:05;;;;;;;6.07;3.88;;;15.50;89.90;;;;;;5027823;28;20425;-67
2022/07/23 06:39:31;;;;;;;6.95;3.65;;;15.50;89.70;;;;;;5028342;28;20095;-67
2022/07/23 06:41:56;;;;;;;7.22;3.83;;;15.60;89.40;;;;;;5025109;28;20516;-67
2022/07/23 06:44:22;;;;;;;8.77;3.55;;;15.70;89.60;;;;;;5028434;28;20056;-67
2022/07/23 06:46:47;;;;;;;7.10;3.97;;;15.90;88.90;;;;;;5021971;28;20029;-67
2022/07/23 06:49:13;;;;;;;5.75;3.05;;;16.00;87.70;;;;;;5024378;28;20049;-67
2022/07/23 06:51:38;;;;;;;9.00;3.17;;;16.10;88.10;;;;;;5025602;28;20030;-67
2022/07/23 06:54:04;;;;;;;4.88;3.33;;;16.10;87.70;;;;;;5025688;28;20064;-67
2022/07/23 06:56:29;;;;;;;6.25;3.05;;;16.10;87.10;;;;;;5026188;28;20539;-68
2022/07/23 06:58:55;;;;;;;7.50;3.25;;;16.10;87.10;;;;;;5017283;28;20022;-67
2022/07/23 07:01:21;;;;;;;6.40;3.35;;;16.20;86.60;;;;;;5017568;28;20654;-67
2022/07/23 07:03:47;;;;;;;9.05;3.05;;;16.30;87.20;;;;;;5025132;28;20091;-67
2022/07/23 07:06:12;;;;;;;10.65;2.95;;;16.40;86.10;;;;;;5025724;28;20507;-67
2022/07/23 07:08:38;;;;;;;5.30;2.63;;;16.50;85.10;;;;;;5019399;28;20038;-68
2022/07/23 07:11:04;;;;;;;6.45;2.85;;;16.60;83.20;;;;;;5018703;28;20021;-67
2022/07/23 07:13:29;;;;;;;4.47;2.60;;;16.70;82.90;;;;;;5018585;28;20026;-67
2022/07/23 07:15:55;;;;;;;4.32;2.35;;;16.80;82.80;;;;;;5016628;28;20030;-68
2022/07/23 07:18:20;;;;;;;4.15;2.58;;;16.90;83.30;;;;;;5023931;28;20487;-68
2022/07/23 07:20:46;;;;;;;6.38;2.58;;;17.30;82.80;;;;;;5025838;28;20903;-67
2022/07/23 07:23:12;;;;;;;3.60;2.50;;;17.10;82.30;;;;;;5028190;28;20037;-68
2022/07/23 07:25:38;;;;;;;5.22;2.05;;;17.20;81.00;;;;;;5029010;28;20048;-67
2022/07/23 07:28:03;;;;;;;6.57;2.08;;;17.00;80.60;;;;;;5028221;28;20033;-67
2022/07/23 07:30:29;;;;;;;8.73;1.83;;;16.80;80.90;;;;;;5027958;28;20447;-67
2022/07/23 07:32:54;;;;;;;4.07;1.75;;;17.00;81.10;;;;;;5022075;28;20034;-67
2022/07/23 07:35:20;;;;;;;3.03;1.73;;;16.70;80.40;;;;;;5027386;28;20022;-67
2022/07/23 07:37:45;;;;;;;4.85;1.50;;;16.80;79.70;;;;;;5029550;28;20049;-67
2022/07/23 07:40:11;;;;;;;5.50;1.02;;;17.00;79.70;;;;;;5027884;28;20064;-67
2022/07/23 07:42:47;;;;;;;5.43;1.40;;;17.30;77.70;;;;;;5026718;28;20318;-67
2022/07/23 07:45:13;;;;;;;4.03;1.02;;;17.70;77.10;;;;;;5026418;28;20113;-67
2022/07/23 07:47:38;;;;;;;1.38;0.82;;;17.70;77.40;;;;;;5015069;28;20144;-67
2022/07/23 07:50:04;;;;;;;2.97;1.13;;;17.50;75.20;;;;;;5027131;28;20037;-67
2022/07/23 07:52:30;;;;;;;2.17;1.10;;;17.30;76.70;;;;;;5029784;28;20022;-67
2022/07/23 07:54:55;;;;;;;5.65;1.40;;;17.30;77.30;;;;;;5026781;28;20022;-68
2022/07/23 07:57:21;;;;;;;2.95;1.38;;;17.40;77.90;;;;;;5025324;28;20026;-67
2022/07/23 07:59:46;;;;;;;2.90;1.35;;;17.60;77.90;;;;;;5023869;28;20041;-67
2022/07/23 08:02:12;;;;;;;3.85;0.93;;;17.60;76.40;;;;;;5024487;28;20426;-67
2022/07/23 08:04:37;;;;;;;2.17;0.90;;;18.00;75.60;;;;;;5021464;28;20038;-67
2022/07/23 08:07:03;;;;;;;2.33;0.98;;;18.30;75.00;;;;;;5029454;28;20032;-67
2022/07/23 08:09:29;;;;;;;6.03;1.17;;;18.60;72.60;;;;;;5016838;28;20396;-67
2022/07/23 08:11:54;;;;;;;3.78;1.02;;;18.40;72.30;;;;;;5022649;28;20556;-67
2022/07/23 08:14:20;;;;;;;1.35;0.70;;;18.20;73.80;;;;;;5026866;28;20631;-67
2022/07/23 08:16:45;;;;;;;3.78;0.90;;;18.00;73.80;;;;;;5025527;28;20042;-67
2022/07/23 08:19:10;;;;;;;0.70;0.70;;;17.90;74.20;;;;;;5027142;28;20119;-67
2022/07/23 08:21:36;;;;;;;1.58;0.80;;;18.00;74.80;;;;;;5029428;28;20449;-67
2022/07/23 08:24:01;;;;;;;1.90;0.90;;;18.30;74.60;;;;;;5023745;28;20029;-67
2022/07/23 08:26:27;;;;;;;1.95;0.68;;;18.10;73.50;;;;;;5021980;28;20075;-67
2022/07/23 08:28:52;;;;;;;3.38;0.85;;;18.20;73.20;;;;;;5026252;28;20022;-67
2022/07/23 08:31:18;;;;;;;3.05;0.90;;;18.00;74.20;;;;;;5024040;28;20449;-67
2022/07/23 08:33:44;;;;;;;2.40;0.88;;;18.00;74.10;;;;;;5024168;28;20116;-67
2022/07/23 08:36:09;;;;;;;1.05;0.70;;;17.90;74.70;;;;;;5027922;28;20422;-67
2022/07/23 08:38:35;;;;;;;2.33;0.88;;;18.00;74.40;;;;;;5026270;28;20045;-67
2022/07/23 08:41:01;;;;;;;2.58;0.80;;;18.10;73.90;;;;;;5026726;28;20028;-67
2022/07/23 08:43:31;;;;;;;1.65;0.75;;;18.80;71.80;;;;;;5024354;28;20204;-67
2022/07/23 08:45:58;;;;;;;3.40;1.02;;;19.50;69.80;;;;;;5026903;28;20354;-67
2022/07/23 08:48:26;;;;;;;1.52;0.70;;;18.70;70.80;;;;;;5024712;28;20531;-67
2022/07/23 08:50:56;;;;;;;1.38;0.57;;;18.50;71.00;;;;;;5026200;28;20037;-68
2022/07/23 08:53:23;;;;;;;5.90;1.00;;;18.50;72.80;;;;;;5021259;28;20473;-68
2022/07/23 08:55:51;;;;;;;1.80;0.70;;;18.40;73.10;;;;;;5027855;28;20037;-67
2022/07/23 08:58:17;;;;;;;3.50;0.77;;;18.50;71.80;;;;;;5029307;28;20030;-67
2022/07/23 09:00:43;;;;;;;1.30;0.70;;;18.30;73.00;;;;;;5028293;28;20053;-67
2022/07/23 09:03:36;;;;;;;3.22;0.60;;;18.50;71.80;;;;;;5026246;28;20036;-67
2022/07/23 09:06:02;;;;;;;3.78;1.13;;;18.50;72.40;;;;;;5013627;28;20111;-67
2022/07/23 09:08:37;;;;;;;1.38;0.63;;;18.30;72.90;;;;;;5026679;28;20074;-67
2022/07/23 09:11:09;;;;;;;2.28;0.90;;;18.10;72.90;;;;;;5029342;28;20401;-67
2022/07/23 09:13:43;;;;;;;2.67;0.90;;;18.00;73.20;;;;;;5029006;28;20116;-67
2022/07/23 09:16:29;;;;;;;3.22;0.80;;;18.00;73.90;;;;;;5027678;28;20072;-67
2022/07/23 09:18:56;;;;;;;4.47;0.90;;;17.90;73.80;;;;;;5026809;28;20076;-67
2022/07/23 09:21:28;;;;;;;2.05;1.00;;;18.20;74.20;;;;;;5029245;28;20043;-67
2022/07/23 09:24:02;;;;;;;3.47;0.77;;;18.30;73.10;;;;;;5031165;28;20032;-67
2022/07/23 09:26:39;;;;;;;1.40;0.65;;;18.30;72.60;;;;;;5024676;28;20060;-67
2022/07/23 09:29:09;;;;;;;1.60;0.50;;;18.60;72.00;;;;;;5031173;28;20034;-67
2022/07/23 09:31:46;;;;;;;2.28;0.90;;;18.70;71.80;;;;;;5019513;28;20401;-68
2022/07/23 09:34:19;;;;;;;0.43;0.28;;;18.70;70.40;;;;;;5026186;28;20056;-68
2022/07/23 09:36:46;;;;;;;1.67;0.45;;;19.10;69.60;;;;;;5023739;28;20068;-68
2022/07/23 09:39:14;;;;;;;0.73;0.35;;;19.70;67.90;;;;;;5026104;28;20044;-67
2022/07/23 09:41:43;;;;;;;2.47;0.40;;;19.80;66.40;;;;;;5019006;28;20031;-68
2022/07/23 09:44:11;;;;;;;1.63;0.43;;;20.00;64.90;;;;;;5022747;28;20044;-67
2022/07/23 09:46:39;;;;;;;1.30;0.50;;;20.40;61.50;;;;;;5021583;28;20156;-68
2022/07/23 09:49:14;;;;;;;0.52;0.40;;;20.50;61.50;;;;;;5018601;28;20030;-67
2022/07/23 09:51:56;;;;;;;0.38;0.30;;;20.20;61.60;;;;;;5024312;28;20464;-67
2022/07/23 09:54:27;;;;;;;2.42;0.32;;;19.80;63.10;;;;;;5024471;28;20051;-67
2022/07/23 09:56:54;;;;;;;2.55;0.50;;;19.50;64.90;;;;;;5015701;28;20457;-67
2022/07/23 09:59:23;;;;;;;2.50;0.52;;;19.50;63.90;;;;;;5025622;28;20108;-67
2022/07/23 10:01:50;;;;;;;0.43;0.38;;;19.30;63.60;;;;;;5026697;28;20030;-67
2022/07/23 10:04:16;;;;;;;1.50;0.52;;;19.30;64.80;;;;;;5027729;28;20037;-67
2022/07/23 10:06:45;;;;;;;1.40;0.30;;;19.40;66.00;;;;;;5028268;28;20653;-67
2022/07/23 10:09:12;;;;;;;2.00;0.55;;;19.50;65.80;;;;;;5014027;28;20134;-67
2022/07/23 10:11:39;;;;;;;4.65;0.30;;;19.60;64.40;;;;;;5017267;28;20030;-68
2022/07/23 10:14:05;;;;;;;2.65;0.40;;;19.50;65.10;;;;;;5024086;28;20528;-67
2022/07/23 10:16:31;;;;;;;2.00;0.40;;;19.30;65.50;;;;;;5015851;28;20118;-67
2022/07/23 10:18:57;;;;;;;3.20;0.50;;;19.20;66.40;;;;;;5022654;28;20037;-67
2022/07/23 10:21:47;;;;;;;0.75;0.50;;;19.00;67.80;;;;;;5019304;28;20370;-67
2022/07/23 10:24:31;;;;;;;1.27;0.40;;;18.70;67.90;;;;;;5026122;28;20496;-67
2022/07/23 10:27:15;;;;;;;2.13;0.50;;;18.70;68.20;;;;;;5026045;28;20044;-67
2022/07/23 10:29:47;;;;;;;2.75;0.55;;;18.50;68.80;;;;;;5025129;28;20033;-67
2022/07/23 10:32:17;;;;;;;0.93;0.38;;;18.60;69.50;;;;;;5018917;28;20033;-67
2022/07/23 10:35:03;;;;;;;4.00;0.50;;;18.50;68.80;;;;;;5023463;28;20103;-67
2022/07/23 10:37:36;;;;;;;1.45;0.50;;;18.50;69.10;;;;;;5026963;28;20396;-68
2022/07/23 10:40:11;;;;;;;1.60;0.50;;;18.50;70.00;;;;;;5026073;28;20414;-68
2022/07/23 10:42:37;;;;;;;1.80;0.50;;;18.40;71.00;;;;;;5019608;28;20026;-68
2022/07/23 10:45:24;;;;;;;2.47;0.52;;;18.20;71.30;;;;;;5016034;28;20025;-68
2022/07/23 10:47:53;;;;;;;2.25;0.80;;;18.20;71.90;;;;;;5019342;28;20083;-68
2022/07/23 10:50:23;;;;;;;2.95;0.65;;;18.10;72.20;;;;;;5023536;28;20036;-68
2022/07/23 10:53:13;;;;;;;2.83;0.68;;;18.40;72.10;;;;;;5027278;28;20125;-68
2022/07/23 10:55:41;;;;;;;1.08;0.45;;;18.70;71.10;;;;;;5023271;28;20384;-70
2022/07/23 10:58:08;;;;;;;1.40;0.50;;;19.20;69.70;;;;;;5024341;28;20069;-70
2022/07/23 11:00:36;;;;;;;0.60;0.40;;;19.50;70.40;;;;;;5027112;28;20033;-69
2022/07/23 11:03:07;;;;;;;1.35;0.50;;;19.80;67.60;;;;;;5022854;28;20372;-69
2022/07/23 11:05:44;;;;;;;2.30;0.55;;;20.10;67.00;;;;;;5023987;28;20492;-70
2022/07/23 11:08:11;;;;;;;1.38;0.50;;;20.40;65.10;;;;;;5017322;28;20096;-70
2022/07/23 11:10:42;;;;;;;3.63;0.43;;;20.10;65.10;;;;;;5018508;28;20040;-70
2022/07/23 11:13:28;;;;;;;1.17;0.40;;;20.00;66.80;;;;;;5020373;28;20076;-70
2022/07/23 11:16:04;;;;;;;1.15;0.35;;;19.50;66.00;;;;;;5025526;28;20028;-70
2022/07/23 11:18:42;;;;;;;2.35;0.47;;;19.10;66.60;;;;;;5020601;28;20505;-72
2022/07/23 11:21:31;;;;;;;1.58;0.57;;;18.90;68.50;;;;;;5029308;28;20040;-70
2022/07/23 11:23:57;;;;;;;1.30;0.40;;;18.80;68.80;;;;;;5025868;28;20033;-70
2022/07/23 11:26:41;;;;;;;0.80;0.40;;;18.70;70.20;;;;;;5029225;28;20040;-70
2022/07/23 11:29:25;;;;;;;1.17;0.30;;;18.60;70.00;;;;;;5030957;28;20174;-71
2022/07/23 11:32:03;;;;;;;0.50;0.40;;;18.70;68.50;;;;;;5021637;28;20041;-68
2022/07/23 11:34:34;;;;;;;1.92;0.50;;;18.80;67.50;;;;;;5031989;28;20044;-69
2022/07/23 11:37:00;;;;;;;0.95;0.35;;;19.10;66.70;;;;;;5025045;28;20060;-71
2022/07/23 11:39:27;;;;;;;0.75;0.30;;;19.50;66.40;;;;;;5028447;28;20460;-71
2022/07/23 11:41:53;;;;;;;2.55;0.30;;;19.80;65.80;;;;;;5029555;28;20029;-72
2022/07/23 11:44:30;;;;;;;2.38;0.45;;;20.30;64.90;;;;;;5028488;28;20034;-72
2022/07/23 11:47:01;;;;;;;0.73;0.30;;;20.70;61.40;;;;;;5027444;28;20040;-73
2022/07/23 11:49:27;;;;;;;;;;;21.00;62.60;;;;;;5014705;28;20045;-73
2022/07/23 11:52:22;;;;;;;1.67;0.30;;;21.00;58.70;;;;;;5019886;28;19909;-72
2022/07/23 11:54:50;;;;;;;1.00;0.38;;;20.70;60.10;;;;;;5012949;28;20044;-73
2022/07/23 11:57:16;;;;;;;0.73;0.20;;;20.90;61.00;;;;;;5029789;28;20607;-72
2022/07/23 11:59:43;;;;;;;0.93;0.38;;;20.80;62.50;;;;;;5031913;28;20112;-74
2022/07/23 12:02:08;;;;;;;0.95;0.40;;;20.80;61.90;;;;;;5027817;28;20108;-72
2022/07/23 12:04:49;;;;;;;1.42;0.40;;;20.60;60.70;;;;;;5031537;28;20430;-72
2022/07/23 12:07:35;;;;;;;2.33;0.40;;;20.60;60.90;;;;;;5029932;28;20022;-72
2022/07/23 12:10:15;;;;;;;2.00;0.30;;;20.50;61.60;;;;;;5028122;28;20037;-72
2022/07/23 12:12:49;;;;;;;2.65;0.47;;;20.50;60.90;;;;;;5029608;28;20075;-71
2022/07/23 12:15:17;;;;;;;0.73;0.30;;;20.70;62.20;;;;;;5029573;28;20029;-72
2022/07/23 12:17:45;;;;;;;1.08;0.35;;;21.00;60.80;;;;;;5028151;28;20017;-72
2022/07/23 12:20:17;;;;;;;0.57;0.30;;;21.10;61.30;;;;;;5030491;28;20511;-70
2022/07/23 12:22:46;;;;;;;1.75;0.40;;;21.00;60.90;;;;;;5026789;28;20361;-71
2022/07/23 12:25:20;;;;;;;3.60;0.60;;;20.70;60.50;;;;;;5029793;28;20030;-71
2022/07/23 12:27:57;;;;;;;1.20;0.25;;;20.70;60.80;;;;;;5027907;28;20615;-72
2022/07/23 12:30:46;;;;;;;0.63;0.22;;;20.90;60.70;;;;;;5030541;28;20480;-70
2022/07/23 12:33:27;;;;;;;0.52;0.45;;;20.70;60.70;;;;;;5025950;28;20017;-71
2022/07/23 12:35:55;;;;;;;1.23;0.50;;;21.40;59.70;;;;;;5031308;28;20059;-71
2022/07/23 12:38:23;;;;;;;2.72;0.40;;;22.40;58.70;;;;;;5026300;28;20509;-71
2022/07/23 12:40:54;;;;;;;2.88;0.30;;;22.00;57.40;;;;;;5029930;28;20034;-72
2022/07/23 12:43:27;;;;;;;2.40;0.30;;;21.30;59.10;;;;;;5018639;28;20045;-72
2022/07/23 12:45:57;;;;;;;0.30;0.30;;;21.30;58.10;;;;;;5029330;28;20049;-71
2022/07/23 12:48:36;;;;;;;1.83;0.37;;;20.80;58.90;;;;;;5027204;28;20033;-71